Time;durP1;ratioP1;P1;durP2;ratioP2;P2;SDS_P1;SDS_P2;PMS_P1;PMS_P2;Temp;Humidity;BMP_temperature;BMP_pressure;BME280_temperature;BME280_humidity;BME280_pressure;Samples;Min_cycle;Max_cycle;Signal;HPM_P1;HPM_P2
2022/09/15 00:01:20;;;;;;;;;1.33;1.33;;;;;22.85;55.13;99429.75;110871;1266;16227;-82
2022/09/15 00:03:48;;;;;;;;;2.00;2.00;;;;;22.85;55.17;99429.84;110852;1267;13202;-81
2022/09/15 00:06:16;;;;;;;;;2.00;2.00;;;;;22.86;55.15;99431.73;110832;1266;13625;-83
2022/09/15 00:08:44;;;;;;;;;2.33;2.33;;;;;22.85;55.13;99427.83;110861;1267;13008;-82
2022/09/15 00:11:11;;;;;;;;;2.00;2.00;;;;;22.86;55.11;99424.42;110901;1265;13035;-83
2022/09/15 00:13:38;;;;;;;;;2.00;2.00;;;;;22.86;55.18;99422.02;110910;1267;13082;-81
2022/09/15 00:16:06;;;;;;;;;2.00;2.00;;;;;22.86;55.09;99424.71;110886;1267;13095;-83
2022/09/15 00:18:33;;;;;;;;;5.00;3.00;;;;;22.86;55.08;99425.16;110878;1265;16628;-83
2022/09/15 00:21:01;;;;;;;;;3.00;2.00;;;;;22.85;55.13;99422.70;110868;1267;13212;-82
2022/09/15 00:23:28;;;;;;;;;1.00;1.00;;;;;22.85;55.10;99423.58;110925;1267;13309;-81
2022/09/15 00:25:55;;;;;;;;;1.00;1.00;;;;;22.86;55.07;99422.28;110902;1265;12959;-83
2022/09/15 00:28:23;;;;;;;;;3.00;2.00;;;;;22.85;55.05;99427.77;110909;1267;15127;-82
2022/09/15 00:30:50;;;;;;;;;2.00;2.00;;;;;22.85;55.11;99424.71;110868;1266;13164;-82
2022/09/15 00:33:17;;;;;;;;;2.00;2.00;;;;;22.85;55.12;99418.70;110911;1267;13216;-82
2022/09/15 00:35:45;;;;;;;;;1.50;1.00;;;;;22.84;55.10;99414.64;110895;1265;13064;-82
2022/09/15 00:38:12;;;;;;;;;1.00;1.00;;;;;22.84;55.13;99415.65;110999;1266;13578;-83
2022/09/15 00:40:39;;;;;;;;;2.00;2.00;;;;;22.83;55.14;99412.80;110752;1266;13296;-84
2022/09/15 00:43:08;;;;;;;;;2.00;2.00;;;;;22.84;55.18;99408.89;110756;1267;12982;-83
2022/09/15 00:45:37;;;;;;;;;1.33;1.33;;;;;22.84;55.13;99408.55;110763;1267;13235;-82
2022/09/15 00:48:05;;;;;;;;;1.00;1.00;;;;;22.84;55.12;99409.59;110866;1267;20289;-84
2022/09/15 00:50:33;;;;;;;;;2.00;2.00;;;;;22.84;55.14;99403.04;110860;1266;13216;-83
2022/09/15 00:53:02;;;;;;;;;1.00;1.00;;;;;22.84;55.09;99406.81;110902;1267;13142;-80
2022/09/15 00:55:29;;;;;;;;;2.00;2.00;;;;;22.84;55.09;99408.34;110857;1267;13041;-82
2022/09/15 00:57:57;;;;;;;;;2.00;2.00;;;;;22.84;55.10;99405.44;110892;1265;13166;-82
2022/09/15 01:00:24;;;;;;;;;2.00;2.00;;;;;22.84;55.04;99399.98;110905;1267;13908;-82
2022/09/15 01:02:52;;;;;;;;;2.00;2.00;;;;;22.83;55.06;99398.20;110863;1266;14222;-82
2022/09/15 01:05:19;;;;;;;;;2.00;2.00;;;;;22.84;55.07;99398.88;110859;1266;12618;-84
2022/09/15 01:07:47;;;;;;;;;2.00;2.00;;;;;22.84;55.05;99394.56;110821;1265;13230;-82
2022/09/15 01:10:14;;;;;;;;;1.00;1.00;;;;;22.83;55.02;99397.20;110817;1266;13066;-82
2022/09/15 01:12:41;;;;;;;;;2.00;2.00;;;;;22.83;55.04;99401.58;110716;1267;13196;-82
2022/09/15 01:15:09;;;;;;;;;1.00;1.00;;;;;22.83;55.04;99399.34;110862;1266;13109;-83
2022/09/15 01:17:36;;;;;;;;;1.00;1.00;;;;;22.84;55.01;99394.30;110868;1267;13166;-83
2022/09/15 01:20:03;;;;;;;;;2.00;2.00;;;;;22.84;54.94;99393.59;110909;1266;13021;-83
2022/09/15 01:22:31;;;;;;;;;1.00;1.00;;;;;22.84;54.98;99399.64;110866;1266;12993;-82
2022/09/15 01:24:58;;;;;;;;;1.00;1.00;;;;;22.85;54.98;99395.30;110891;1266;13003;-82
2022/09/15 01:27:25;;;;;;;;;1.00;1.00;;;;;22.85;54.95;99395.30;110847;1266;13088;-82
2022/09/15 01:29:53;;;;;;;;;1.00;1.00;;;;;22.83;54.99;99388.09;110884;1267;13158;-82
2022/09/15 01:35:05;;;;;;;;;2.00;2.00;;;;;22.83;54.99;99386.91;110924;1266;13089;-82
2022/09/15 01:37:32;;;;;;;;;1.33;1.33;;;;;22.84;54.96;99391.55;110844;1265;13061;-83
2022/09/15 01:40:00;;;;;;;;;1.00;1.00;;;;;22.85;54.94;99389.83;110813;1265;12514;-81
2022/09/15 01:42:27;;;;;;;;;1.00;1.00;;;;;22.84;54.92;99387.36;110890;1265;13282;-82
2022/09/15 01:44:54;;;;;;;;;1.00;1.00;;;;;22.84;54.94;99392.11;110680;1267;12758;-82
2022/09/15 01:47:22;;;;;;;;;2.00;2.00;;;;;22.83;54.96;99391.15;110765;1266;18172;-82
2022/09/15 01:49:49;;;;;;;;;1.00;1.00;;;;;22.84;54.96;99389.27;110858;1266;13092;-82
2022/09/15 01:52:16;;;;;;;;;1.00;1.00;;;;;22.83;54.94;99388.59;110893;1266;13138;-82
2022/09/15 01:54:44;;;;;;;;;2.00;2.00;;;;;22.82;54.93;99385.27;110905;1267;13138;-82
2022/09/15 01:57:12;;;;;;;;;1.00;1.00;;;;;22.83;54.92;99385.68;110889;1266;16516;-81
2022/09/15 01:59:39;;;;;;;;;2.00;2.00;;;;;22.81;54.99;99386.37;110929;1266;13166;-81
2022/09/15 02:02:08;;;;;;;;;1.33;1.33;;;;;22.80;55.03;99389.19;110977;1267;13488;-81
2022/09/15 02:04:37;;;;;;;;;1.00;1.00;;;;;22.83;54.98;99386.65;110888;1266;13417;-80
2022/09/15 02:07:05;;;;;;;;;1.00;1.00;;;;;22.82;54.98;99385.52;110894;1266;12946;-80
2022/09/15 02:09:32;;;;;;;;;1.00;1.00;;;;;22.82;54.97;99381.57;110845;1267;13264;-81
2022/09/15 02:11:59;;;;;;;;;1.00;1.00;;;;;22.82;55.02;99383.67;110881;1266;14801;-81
2022/09/15 02:14:27;;;;;;;;;1.00;1.00;;;;;22.82;55.01;99382.95;110824;1267;13196;-82
2022/09/15 02:16:54;;;;;;;;;1.00;1.00;;;;;22.82;55.00;99376.69;110885;1265;16611;-82
2022/09/15 02:19:22;;;;;;;;;1.00;1.00;;;;;22.82;54.97;99377.12;110897;1266;12992;-82
2022/09/15 02:21:52;;;;;;;;;1.00;1.00;;;;;22.82;54.97;99381.44;110864;1266;15100;-82
2022/09/15 02:24:20;;;;;;;;;1.00;1.00;;;;;22.83;54.95;99379.22;110845;1266;13093;-81
2022/09/15 02:26:47;;;;;;;;;1.00;1.00;;;;;22.81;54.98;99378.25;110840;1266;13018;-82
2022/09/15 02:29:15;;;;;;;;;1.00;1.00;;;;;22.82;54.97;99372.90;110910;1267;13116;-81
2022/09/15 02:31:42;;;;;;;;;1.00;1.00;;;;;22.81;54.96;99374.43;110869;1266;12691;-82
2022/09/15 02:34:09;;;;;;;;;1.00;1.00;;;;;22.81;55.01;99373.05;110815;1267;12914;-82
2022/09/15 02:36:36;;;;;;;;;1.00;1.00;;;;;22.81;54.99;99373.76;110838;1267;13230;-82
2022/09/15 02:39:04;;;;;;;;;1.00;1.00;;;;;22.81;55.01;99371.57;110859;1266;12600;-82
2022/09/15 02:41:31;;;;;;;;;1.00;1.00;;;;;22.81;55.02;99370.52;110846;1265;13062;-83
2022/09/15 02:43:58;;;;;;;;;2.00;2.00;;;;;22.82;54.99;99374.60;110825;1266;12539;-83
2022/09/15 02:46:26;;;;;;;;;1.00;1.00;;;;;22.82;54.92;99372.06;110889;1266;13140;-83
2022/09/15 02:48:53;;;;;;;;;2.00;2.00;;;;;22.81;54.93;99367.70;110866;1266;12986;-82
2022/09/15 02:51:20;;;;;;;;;1.33;1.33;;;;;22.81;55.00;99369.92;110822;1266;13096;-81
2022/09/15 02:53:48;;;;;;;;;1.00;1.00;;;;;22.81;54.99;99367.20;110826;1265;13197;-82
2022/09/15 02:56:16;;;;;;;;;1.00;1.00;;;;;22.81;54.97;99366.36;110856;1266;13003;-83
2022/09/15 02:58:44;;;;;;;;;1.00;1.00;;;;;22.81;54.93;99365.56;110842;1266;12952;-83
2022/09/15 03:01:14;;;;;;;;;2.00;2.00;;;;;22.82;54.91;99364.38;110837;1265;15129;-81
2022/09/15 03:03:41;;;;;;;;;1.67;1.67;;;;;22.81;54.87;99365.27;110816;1266;12968;-81
2022/09/15 03:06:19;;;;;;;;;1.00;1.00;;;;;22.81;54.93;99367.15;110885;1266;13182;-82
2022/09/15 03:08:47;;;;;;;;;1.00;1.00;;;;;22.81;54.90;99363.59;110885;1268;12834;-84
2022/09/15 03:11:14;;;;;;;;;1.00;1.00;;;;;22.81;54.86;99357.95;110801;1265;12971;-81
2022/09/15 03:13:42;;;;;;;;;1.00;1.00;;;;;22.80;54.85;99358.94;111281;1266;13224;-82
2022/09/15 03:16:09;;;;;;;;;1.67;1.67;;;;;22.80;54.85;99358.48;111404;1266;13118;-81
2022/09/15 03:18:36;;;;;;;;;1.00;1.00;;;;;22.80;54.92;99359.73;110677;1266;13086;-83
2022/09/15 03:21:04;;;;;;;;;1.00;1.00;;;;;22.81;54.89;99358.71;110866;1266;13113;-81
2022/09/15 03:23:31;;;;;;;;;1.67;1.67;;;;;22.80;54.86;99360.95;110895;1267;13246;-81
2022/09/15 03:25:59;;;;;;;;;1.00;1.00;;;;;22.81;54.85;99364.39;110867;1267;13230;-84
2022/09/15 03:28:26;;;;;;;;;1.67;1.67;;;;;22.80;54.89;99361.77;110871;1266;12986;-83
2022/09/15 03:30:53;;;;;;;;;2.00;2.00;;;;;22.79;54.85;99365.08;110847;1267;12737;-82
2022/09/15 03:33:21;;;;;;;;;1.00;1.00;;;;;22.79;54.81;99366.64;110911;1266;13089;-82
2022/09/15 03:35:48;;;;;;;;;1.33;1.33;;;;;22.77;54.84;99364.48;110820;1266;13213;-83
2022/09/15 03:38:15;;;;;;;;;1.33;1.33;;;;;22.79;54.82;99365.45;110877;1267;16601;-84
2022/09/15 03:40:42;;;;;;;;;1.00;1.00;;;;;22.80;54.74;99365.37;110855;1265;13116;-83
2022/09/15 03:43:10;;;;;;;;;1.00;1.00;;;;;22.80;54.78;99364.98;110782;1265;12872;-83
2022/09/15 03:45:37;;;;;;;;;2.00;2.00;;;;;22.79;54.78;99362.98;110827;1267;12914;-84
2022/09/15 03:48:05;;;;;;;;;1.00;1.00;;;;;22.79;54.75;99359.67;110700;1267;12703;-82
2022/09/15 03:50:32;;;;;;;;;2.00;2.00;;;;;22.79;54.76;99362.44;110930;1266;13231;-83
2022/09/15 03:53:00;;;;;;;;;1.00;1.00;;;;;22.80;54.78;99358.48;110833;1266;13289;-82
2022/09/15 03:55:27;;;;;;;;;1.00;1.00;;;;;22.79;54.75;99352.19;110842;1266;12871;-82
2022/09/15 03:57:54;;;;;;;;;2.00;2.00;;;;;22.80;54.75;99357.02;110869;1267;13295;-82
2022/09/15 04:00:22;;;;;;;;;1.67;1.67;;;;;22.79;54.75;99353.88;110891;1266;13121;-82
2022/09/15 04:02:49;;;;;;;;;2.00;2.00;;;;;22.79;54.67;99359.33;110908;1266;13203;-82
2022/09/15 04:05:16;;;;;;;;;1.00;1.00;;;;;22.79;54.70;99359.16;110910;1267;12641;-83
2022/09/15 04:07:44;;;;;;;;;2.00;2.00;;;;;22.79;54.73;99353.20;110855;1266;12902;-84
2022/09/15 04:10:11;;;;;;;;;1.00;1.00;;;;;22.79;54.71;99356.05;110818;1267;12487;-82
2022/09/15 04:12:38;;;;;;;;;1.00;1.00;;;;;22.79;54.67;99357.81;110780;1267;12769;-82
2022/09/15 04:15:06;;;;;;;;;1.00;1.00;;;;;22.80;54.69;99355.32;110824;1266;14976;-82
2022/09/15 04:17:33;;;;;;;;;2.00;2.00;;;;;22.79;54.68;99355.05;110890;1267;10533;-82
2022/09/15 04:20:00;;;;;;;;;1.33;1.33;;;;;22.79;54.64;99352.77;110852;1267;12981;-82
2022/09/15 04:22:28;;;;;;;;;3.00;1.67;;;;;22.80;54.65;99354.70;110857;1266;12699;-83
2022/09/15 04:24:55;;;;;;;;;1.33;1.33;;;;;22.80;54.66;99350.33;110829;1267;13150;-83
2022/09/15 04:27:22;;;;;;;;;2.00;2.00;;;;;22.79;54.61;99347.27;110864;1267;13122;-83
2022/09/15 04:29:50;;;;;;;;;1.00;1.00;;;;;22.80;54.63;99351.33;110873;1266;13991;-83
2022/09/15 04:32:17;;;;;;;;;2.00;2.00;;;;;22.79;54.62;99348.90;110890;1266;12633;-82
2022/09/15 04:34:44;;;;;;;;;2.00;2.00;;;;;22.79;54.60;99353.86;110837;1266;12990;-82
2022/09/15 04:37:12;;;;;;;;;2.00;2.00;;;;;22.79;54.62;99346.77;110853;1266;13197;-81
2022/09/15 04:39:39;;;;;;;;;1.00;1.00;;;;;22.78;54.61;99349.75;110853;1267;12997;-82
2022/09/15 04:42:07;;;;;;;;;1.00;1.00;;;;;22.79;54.58;99350.00;110806;1264;13411;-83
2022/09/15 04:44:34;;;;;;;;;2.00;2.00;;;;;22.79;54.59;99354.74;110857;1267;13075;-83
2022/09/15 04:47:01;;;;;;;;;2.00;2.00;;;;;22.79;54.53;99352.23;110770;1267;13238;-82
2022/09/15 04:49:30;;;;;;;;;2.00;2.00;;;;;22.78;54.54;99353.13;110793;1266;13026;-82
2022/09/15 04:51:57;;;;;;;;;1.50;1.50;;;;;22.78;54.57;99351.60;110843;1267;13099;-81
2022/09/15 04:54:24;;;;;;;;;2.00;1.00;;;;;22.78;54.57;99349.05;110861;1266;18521;-83
2022/09/15 04:56:52;;;;;;;;;2.00;2.00;;;;;22.78;54.52;99348.95;110905;1265;12105;-82
2022/09/15 04:59:19;;;;;;;;;1.00;1.00;;;;;22.79;54.54;99349.04;110941;1267;13203;-81
2022/09/15 05:01:46;;;;;;;;;1.00;1.00;;;;;22.78;54.54;99350.77;110824;1267;12899;-82
2022/09/15 05:04:14;;;;;;;;;2.00;2.00;;;;;22.78;54.49;99348.04;110816;1267;13172;-82
2022/09/15 05:06:41;;;;;;;;;1.00;1.00;;;;;22.78;54.50;99351.86;110861;1267;12743;-83
2022/09/15 05:09:08;;;;;;;;;1.00;1.00;;;;;22.78;54.47;99353.30;110880;1266;13307;-83
2022/09/15 05:11:36;;;;;;;;;2.00;1.67;;;;;22.79;54.48;99356.27;110904;1263;12990;-82
2022/09/15 05:14:03;;;;;;;;;2.00;2.00;;;;;22.80;54.52;99358.48;110903;1267;13054;-82
2022/09/15 05:16:31;;;;;;;;;2.50;2.50;;;;;22.80;54.47;99358.01;110859;1266;13078;-81
2022/09/15 05:18:58;;;;;;;;;1.67;1.00;;;;;22.83;54.88;99357.27;110037;1267;1113543;-80
2022/09/15 05:21:26;;;;;;;;;1.00;1.00;;;;;22.86;55.46;99355.61;110899;1266;10432;-81
2022/09/15 05:23:53;;;;;;;;;2.00;2.00;;;;;22.88;55.74;99359.73;110834;1267;12991;-82
2022/09/15 05:26:21;;;;;;;;;2.00;2.00;;;;;22.89;56.01;99352.13;110834;1267;12890;-81
2022/09/15 05:28:48;;;;;;;;;2.00;2.00;;;;;22.96;56.34;99348.06;110759;1266;13109;-82
2022/09/15 05:31:17;;;;;;;;;3.00;3.00;;;;;22.98;56.48;99348.33;110844;1265;13192;-81
2022/09/15 05:33:45;;;;;;;;;2.00;2.00;;;;;23.02;56.30;99345.52;110814;1267;12655;-81
2022/09/15 05:36:13;;;;;;;;;2.00;2.00;;;;;23.00;56.33;99341.22;110791;1265;12779;-83
2022/09/15 05:38:41;;;;;;;;;2.33;2.00;;;;;22.97;56.53;99335.83;110850;1267;13131;-83
2022/09/15 05:41:08;;;;;;;;;2.33;2.33;;;;;22.99;56.15;99337.81;110889;1267;13200;-80
2022/09/15 05:43:36;;;;;;;;;2.00;2.00;;;;;22.96;56.02;99334.95;110858;1267;13256;-81
2022/09/15 05:46:03;;;;;;;;;2.00;2.00;;;;;22.92;56.28;99339.83;110872;1267;11541;-81
2022/09/15 05:48:30;;;;;;;;;2.00;2.00;;;;;22.89;56.33;99345.15;110805;1266;12689;-81
2022/09/15 05:50:59;;;;;;;;;2.00;2.00;;;;;22.87;56.29;99340.23;110853;1267;13200;-83
2022/09/15 05:53:26;;;;;;;;;2.00;2.00;;;;;22.88;56.30;99340.23;110900;1267;14127;-82
2022/09/15 05:55:54;;;;;;;;;1.00;1.00;;;;;22.87;56.26;99334.60;110865;1266;12893;-81
2022/09/15 05:58:22;;;;;;;;;1.00;1.00;;;;;22.87;56.18;99339.39;110793;1266;12901;-81
2022/09/15 06:00:49;;;;;;;;;2.00;2.00;;;;;22.87;56.08;99339.98;110811;1265;13063;-81
2022/09/15 06:03:16;;;;;;;;;2.00;2.00;;;;;22.89;55.99;99343.73;110675;1266;12635;-80
2022/09/15 06:05:44;;;;;;;;;2.00;2.00;;;;;22.88;55.89;99341.11;110666;1266;12758;-79
2022/09/15 06:08:11;;;;;;;;;3.00;2.00;;;;;22.87;56.04;99340.53;110877;1266;12918;-80
2022/09/15 06:10:38;;;;;;;;;1.00;1.00;;;;;22.85;56.06;99340.90;110914;1265;13658;-80
2022/09/15 06:13:06;;;;;;;;;2.67;2.00;;;;;22.86;56.03;99342.11;110912;1267;12458;-80
2022/09/15 06:15:33;;;;;;;;;2.00;2.00;;;;;22.86;55.97;99340.86;110861;1266;13125;-80
2022/09/15 06:18:00;;;;;;;;;1.33;1.33;;;;;22.85;55.90;99343.09;110887;1267;16603;-81
2022/09/15 06:20:28;;;;;;;;;2.00;2.00;;;;;22.85;55.89;99344.56;110908;1267;13116;-80
2022/09/15 06:22:55;;;;;;;;;2.00;2.00;;;;;22.85;55.89;99339.19;110933;1267;13197;-79
2022/09/15 06:25:22;;;;;;;;;2.00;2.00;;;;;22.86;55.83;99336.12;110811;1265;12778;-79
2022/09/15 06:27:50;;;;;;;;;1.33;1.33;;;;;22.85;55.79;99333.67;110881;1267;13078;-79
2022/09/15 06:30:17;;;;;;;;;1.00;1.00;;;;;22.85;55.83;99333.05;110871;1266;12984;-80
2022/09/15 06:32:45;;;;;;;;;3.67;3.67;;;;;22.86;55.50;99336.50;110938;1267;15051;-82
2022/09/15 06:35:14;;;;;;;;;6.00;6.00;;;;;22.86;55.22;99341.31;110907;1266;16599;-83
2022/09/15 06:37:41;;;;;;;;;3.67;3.67;;;;;22.85;54.92;99342.05;110828;1266;13116;-82
2022/09/15 06:40:08;;;;;;;;;6.67;6.67;;;;;22.82;54.44;99345.25;110856;1267;13233;-80
2022/09/15 06:42:36;;;;;;;;;6.33;6.33;;;;;22.82;54.00;99338.38;110851;1267;13170;-81
2022/09/15 06:45:04;;;;;;;;;7.00;6.00;;;;;22.79;53.74;99336.73;110857;1267;13034;-81
2022/09/15 06:47:32;;;;;;;;;10.67;7.67;;;;;22.82;53.31;99337.78;110924;1267;13236;-80
2022/09/15 06:50:00;;;;;;;;;6.50;6.00;;;;;22.81;53.21;99342.95;110817;1265;13091;-81
2022/09/15 06:52:27;;;;;;;;;10.00;8.00;;;;;22.72;52.92;99337.73;110796;1267;13231;-85
2022/09/15 06:54:54;;;;;;;;;10.00;8.00;;;;;22.63;52.72;99335.25;110836;1265;12637;-83
2022/09/15 06:57:22;;;;;;;;;10.00;7.00;;;;;22.66;52.40;99338.05;110800;1265;13106;-83
2022/09/15 06:59:49;;;;;;;;;7.67;7.67;;;;;22.71;52.48;99332.17;110845;1267;13098;-83
2022/09/15 07:02:16;;;;;;;;;10.33;10.00;;;;;22.78;52.39;99334.88;110950;1266;13193;-85
2022/09/15 07:04:44;;;;;;;;;9.00;8.00;;;;;22.81;52.34;99329.85;110946;1267;12995;-82
2022/09/15 07:07:11;;;;;;;;;10.00;8.00;;;;;22.84;52.23;99331.08;110976;1267;10427;-80
2022/09/15 07:09:39;;;;;;;;;8.00;7.67;;;;;22.83;52.05;99337.95;110969;1267;13232;-81
2022/09/15 07:12:06;;;;;;;;;6.50;6.50;;;;;22.83;51.87;99334.20;110892;1267;13230;-82
2022/09/15 07:14:33;;;;;;;;;7.00;6.33;;;;;22.84;51.72;99338.56;110902;1267;13193;-81
2022/09/15 07:17:00;;;;;;;;;7.33;7.00;;;;;22.88;51.47;99338.92;110908;1266;13146;-82
2022/09/15 07:19:28;;;;;;;;;7.33;7.33;;;;;22.93;51.31;99334.23;110889;1267;16755;-82
2022/09/15 07:21:55;;;;;;;;;7.00;7.00;;;;;22.93;51.01;99337.63;110872;1265;13217;-82
2022/09/15 07:24:22;;;;;;;;;10.00;7.00;;;;;22.90;51.18;99343.50;110770;1265;13105;-83
2022/09/15 07:26:50;;;;;;;;;77.33;57.67;;;;;22.95;51.07;99338.29;110735;1265;12983;-82
2022/09/15 07:29:18;;;;;;;;;102.33;86.00;;;;;22.98;51.06;99334.05;110858;1265;10537;-82
2022/09/15 07:31:46;;;;;;;;;79.67;56.33;;;;;22.98;51.12;99333.08;110845;1267;10456;-84
2022/09/15 07:34:13;;;;;;;;;58.00;44.33;;;;;23.06;51.06;99340.23;110836;1265;10457;-85
2022/09/15 07:36:40;;;;;;;;;46.00;35.33;;;;;23.10;50.94;99338.55;110603;1267;10482;-82
2022/09/15 07:39:08;;;;;;;;;31.33;26.67;;;;;23.12;50.88;99338.10;110725;1265;13282;-84
2022/09/15 07:41:35;;;;;;;;;21.67;17.33;;;;;23.14;50.71;99340.95;110893;1266;13193;-84
2022/09/15 07:44:02;;;;;;;;;22.67;18.00;;;;;23.12;50.64;99338.27;110808;1265;13256;-86
2022/09/15 07:46:30;;;;;;;;;20.00;16.00;;;;;23.16;50.59;99341.55;111132;1267;13088;-82
2022/09/15 07:48:57;;;;;;;;;12.00;11.00;;;;;23.15;50.49;99344.66;110915;1267;13255;-81
2022/09/15 07:51:24;;;;;;;;;11.00;8.00;;;;;23.11;50.23;99349.08;111082;1265;13440;-83
2022/09/15 07:53:52;;;;;;;;;7.00;6.67;;;;;23.09;50.03;99348.69;111118;1267;13663;-83
2022/09/15 07:56:19;;;;;;;;;7.00;6.00;;;;;23.09;49.62;99343.69;110624;1267;13218;-83
2022/09/15 07:58:47;;;;;;;;;6.67;6.00;;;;;23.13;49.30;99347.10;110583;1264;12991;-90
2022/09/15 08:01:14;;;;;;;;;5.00;5.00;;;;;23.11;49.12;99347.90;110864;1267;13216;-91
2022/09/15 08:03:42;;;;;;;;;6.00;6.00;;;;;23.11;49.10;99352.40;110895;1266;13084;-92
2022/09/15 08:06:11;;;;;;;;;5.00;5.00;;;;;23.12;49.05;99351.60;110886;1265;13186;-86
2022/09/15 08:08:38;;;;;;;;;7.00;6.67;;;;;23.09;49.07;99349.62;110940;1267;13104;-83
2022/09/15 08:11:06;;;;;;;;;6.00;5.00;;;;;23.08;48.97;99347.19;110898;1266;13073;-83
2022/09/15 08:13:33;;;;;;;;;5.00;5.00;;;;;23.11;48.91;99350.59;110894;1265;12977;-85
2022/09/15 08:16:00;;;;;;;;;7.00;6.00;;;;;23.12;48.63;99347.77;110817;1267;13085;-87
2022/09/15 08:18:28;;;;;;;;;6.67;6.00;;;;;23.12;48.48;99348.66;110902;1267;13219;-88
2022/09/15 08:20:58;;;;;;;;;7.00;6.00;;;;;23.15;48.48;99345.42;110847;1267;13031;-90
2022/09/15 08:23:25;;;;;;;;;6.00;6.00;;;;;23.18;48.29;99345.61;110828;1267;13214;-86
2022/09/15 08:25:53;;;;;;;;;6.33;6.33;;;;;23.17;48.15;99344.95;110884;1267;14390;-87
2022/09/15 08:28:22;;;;;;;;;5.00;5.00;;;;;23.13;48.01;99344.27;110902;1267;12446;-88
2022/09/15 08:30:49;;;;;;;;;3.00;3.00;;;;;23.11;47.82;99345.34;110869;1267;13190;-87
2022/09/15 08:33:17;;;;;;;;;3.00;3.00;;;;;23.13;47.20;99346.04;110943;1267;13199;-89
2022/09/15 08:35:44;;;;;;;;;5.00;5.00;;;;;23.21;47.06;99346.13;111051;1267;13004;-88
2022/09/15 08:38:12;;;;;;;;;6.00;5.67;;;;;23.23;46.87;99343.96;110922;1267;17539;-88
2022/09/15 08:40:41;;;;;;;;;3.00;3.00;;;;;23.21;46.80;99348.66;110888;1267;12747;-87
2022/09/15 08:43:08;;;;;;;;;5.00;5.00;;;;;23.27;46.82;99346.27;110853;1267;13133;-88
2022/09/15 08:45:35;;;;;;;;;5.00;3.00;;;;;23.24;46.83;99353.16;110908;1267;12966;-88
2022/09/15 08:48:03;;;;;;;;;5.00;3.67;;;;;23.22;46.62;99349.73;110865;1265;13210;-88
2022/09/15 08:50:30;;;;;;;;;4.33;3.00;;;;;23.27;46.44;99348.62;110921;1267;13154;-86
2022/09/15 08:52:58;;;;;;;;;5.00;5.00;;;;;23.17;45.85;99349.95;110873;1267;13104;-87
2022/09/15 08:55:25;;;;;;;;;5.00;5.00;;;;;23.10;45.98;99346.52;110871;1267;13126;-89
2022/09/15 08:57:52;;;;;;;;;6.00;5.00;;;;;23.16;46.04;99349.95;110850;1267;13203;-88
2022/09/15 09:00:19;;;;;;;;;3.67;3.00;;;;;23.11;45.87;99353.42;110831;1267;12991;-87
2022/09/15 09:02:47;;;;;;;;;3.00;3.00;;;;;23.04;45.67;99349.51;110821;1267;13086;-87
2022/09/15 09:05:14;;;;;;;;;6.00;3.00;;;;;22.97;45.35;99356.41;110723;1267;13018;-86
2022/09/15 09:07:41;;;;;;;;;6.00;6.00;;;;;22.86;45.32;99353.79;110896;1265;13534;-87
2022/09/15 09:10:09;;;;;;;;;2.00;2.00;;;;;22.80;45.90;99353.46;110908;1266;13206;-86
2022/09/15 09:12:36;;;;;;;;;3.00;3.00;;;;;22.88;46.09;99346.57;110935;1266;13087;-86
2022/09/15 09:15:03;;;;;;;;;4.33;3.00;;;;;23.13;45.77;99337.05;110927;1266;13098;-87
2022/09/15 09:17:31;;;;;;;;;2.33;2.33;;;;;23.11;45.65;99338.66;110916;1266;13088;-86
2022/09/15 09:19:58;;;;;;;;;3.00;3.00;;;;;23.08;45.77;99336.96;110866;1266;12484;-85
2022/09/15 09:22:27;;;;;;;;;3.00;3.00;;;;;23.21;45.44;99337.29;110864;1267;12680;-85
2022/09/15 09:24:56;;;;;;;;;4.33;3.00;;;;;23.19;45.30;99344.05;110821;1266;13114;-86
2022/09/15 09:27:23;;;;;;;;;3.00;3.00;;;;;23.12;45.19;99350.33;111472;1265;13243;-85
2022/09/15 09:29:51;;;;;;;;;3.00;3.00;;;;;22.97;44.92;99359.23;110873;1267;13011;-85
2022/09/15 09:32:18;;;;;;;;;6.00;5.00;;;;;22.85;45.07;99354.11;110869;1266;10713;-85
2022/09/15 09:34:47;;;;;;;;;2.00;2.00;;;;;22.78;45.19;99352.98;110874;1267;13122;-84
2022/09/15 09:37:15;;;;;;;;;3.00;3.00;;;;;22.85;45.22;99350.59;110892;1267;13124;-87
2022/09/15 09:39:42;;;;;;;;;2.00;2.00;;;;;22.91;44.80;99349.70;110869;1266;13481;-87
2022/09/15 09:42:10;;;;;;;;;3.00;2.67;;;;;22.79;44.80;99350.21;110913;1267;12841;-86
2022/09/15 09:44:37;;;;;;;;;3.00;3.00;;;;;22.78;44.76;99347.61;110890;1267;12895;-88
2022/09/15 09:47:05;;;;;;;;;2.00;2.00;;;;;22.77;45.05;99345.72;110868;1265;12761;-87
2022/09/15 09:49:33;;;;;;;;;2.33;2.00;;;;;22.78;45.12;99349.63;110880;1267;12339;-86
2022/09/15 09:52:02;;;;;;;;;3.00;3.00;;;;;22.81;45.11;99357.54;110904;1267;12990;-86
2022/09/15 09:54:30;;;;;;;;;5.00;5.00;;;;;22.68;45.11;99351.86;110839;1267;13098;-88
2022/09/15 09:56:57;;;;;;;;;3.00;2.00;;;;;22.54;45.14;99350.36;110902;1265;13213;-86
2022/09/15 09:59:24;;;;;;;;;3.00;3.00;;;;;22.47;45.46;99353.66;110906;1266;12452;-82
2022/09/15 10:01:52;;;;;;;;;2.67;2.33;;;;;22.57;45.34;99347.20;110910;1267;13005;-91
2022/09/15 10:04:20;;;;;;;;;3.00;3.00;;;;;22.51;45.19;99343.38;111293;1265;12582;-92
2022/09/15 10:06:50;;;;;;;;;3.67;3.67;;;;;22.55;45.61;99342.29;111696;1267;13199;-91
2022/09/15 10:09:20;;;;;;;;;3.00;3.00;;;;;22.67;45.87;99332.23;111583;1266;13125;-91
2022/09/15 10:11:48;;;;;;;;;3.00;3.00;;;;;22.83;45.85;99327.60;111448;1267;13179;-91
2022/09/15 10:14:16;;;;;;;;;3.00;3.00;;;;;22.92;45.49;99326.17;111441;1267;13173;-92
2022/09/15 10:16:45;;;;;;;;;3.00;3.00;;;;;22.86;45.36;99332.95;111531;1266;13173;-92
2022/09/15 10:19:13;;;;;;;;;3.00;3.00;;;;;22.86;45.48;99335.31;111765;1267;13102;-92
2022/09/15 10:21:40;;;;;;;;;3.00;3.00;;;;;22.74;45.33;99342.02;111524;1265;13187;-93
2022/09/15 10:24:08;;;;;;;;;2.67;2.67;;;;;22.52;45.24;99334.84;111153;1266;13109;-87
2022/09/15 10:26:35;;;;;;;;;2.00;2.00;;;;;22.49;45.22;99331.13;111346;1267;13013;-92
2022/09/15 10:29:02;;;;;;;;;5.00;3.67;;;;;22.56;45.31;99326.91;111300;1266;13201;-83
2022/09/15 10:31:30;;;;;;;;;3.00;3.00;;;;;22.49;45.40;99330.50;110848;1267;12984;-85
2022/09/15 10:33:57;;;;;;;;;2.33;2.00;;;;;22.41;45.31;99330.65;110888;1267;12665;-85
2022/09/15 10:36:24;;;;;;;;;3.00;3.00;;;;;22.34;45.26;99334.10;110894;1266;13080;-87
2022/09/15 10:38:52;;;;;;;;;5.00;3.00;;;;;22.37;45.04;99330.91;110959;1266;12595;-85
2022/09/15 10:41:19;;;;;;;;;2.00;2.00;;;;;22.43;45.06;99329.92;110907;1267;13059;-84
2022/09/15 10:43:46;;;;;;;;;2.00;2.00;;;;;22.42;45.06;99328.41;110766;1267;13098;-84
2022/09/15 10:46:14;;;;;;;;;2.67;2.67;;;;;22.47;45.21;99327.73;110904;1267;13175;-86
2022/09/15 10:48:41;;;;;;;;;2.33;2.00;;;;;22.47;45.04;99327.16;110878;1266;13108;-84
2022/09/15 10:51:10;;;;;;;;;3.00;3.00;;;;;22.52;44.71;99321.48;110924;1266;13309;-85
2022/09/15 10:53:37;;;;;;;;;2.00;2.00;;;;;22.49;44.75;99323.87;110917;1267;13155;-84
2022/09/15 10:56:05;;;;;;;;;3.00;2.00;;;;;22.60;45.04;99315.75;110844;1266;13109;-86
2022/09/15 10:58:32;;;;;;;;;3.00;3.00;;;;;22.69;45.12;99317.85;111260;1267;13039;-87
2022/09/15 11:00:59;;;;;;;;;2.33;2.33;;;;;22.59;44.65;99314.59;111124;1267;13077;-85
2022/09/15 11:03:27;;;;;;;;;2.67;2.67;;;;;22.49;44.43;99312.18;110976;1265;17475;-86
2022/09/15 11:05:54;;;;;;;;;2.00;2.00;;;;;22.49;44.35;99317.31;110901;1267;13195;-84
2022/09/15 11:08:22;;;;;;;;;5.00;3.00;;;;;22.46;44.55;99314.70;110843;1266;13083;-83
2022/09/15 11:10:49;;;;;;;;;2.00;2.00;;;;;22.22;44.94;99313.69;110854;1265;12256;-84
2022/09/15 11:13:17;;;;;;;;;2.00;2.00;;;;;22.01;45.57;99316.88;110897;1266;12951;-83
2022/09/15 11:15:44;;;;;;;;;2.33;2.33;;;;;21.89;45.53;99319.33;110929;1267;13376;-84
2022/09/15 11:18:11;;;;;;;;;3.00;3.00;;;;;21.67;46.02;99321.42;110922;1267;13010;-84
2022/09/15 11:20:39;;;;;;;;;5.67;4.33;;;;;21.67;46.24;99324.98;110964;1266;13109;-85
2022/09/15 11:23:06;;;;;;;;;3.00;3.00;;;;;21.72;46.38;99321.06;110933;1267;12844;-85
2022/09/15 11:25:34;;;;;;;;;3.00;3.00;;;;;21.56;46.74;99322.06;110834;1266;13128;-84
2022/09/15 11:28:01;;;;;;;;;6.00;3.00;;;;;21.39;46.84;99327.58;110811;1266;13173;-87